Time;durP1;ratioP1;P1;durP2;ratioP2;P2;SDS_P1;SDS_P2;PMS_P1;PMS_P2;Temp;Humidity;BMP_temperature;BMP_pressure;BME280_temperature;BME280_humidity;BME280_pressure;Samples;Min_cycle;Max_cycle;Signal;HPM_P1;HPM_P2
2022/06/22 00:00:35;;;;;;;15.93;9.23;;;;;;;13.29;83.70;101358.25;5048740;28;20455;-81
2022/06/22 00:03:01;;;;;;;15.23;9.02;;;;;;;13.21;83.70;101368.00;5049025;28;20041;-81
2022/06/22 00:05:33;;;;;;;14.40;9.25;;;;;;;13.18;83.94;101370.66;5048722;28;20222;-81
2022/06/22 00:08:02;;;;;;;18.85;9.45;;;;;;;13.19;84.55;101368.91;5049078;28;20021;-81
2022/06/22 00:10:30;;;;;;;16.98;9.20;;;;;;;13.17;84.56;101363.75;5048936;28;20278;-81
2022/06/22 00:12:58;;;;;;;16.60;10.63;;;;;;;13.15;84.55;101359.50;5049480;28;20108;-81
2022/06/22 00:15:34;;;;;;;22.83;10.13;;;;;;;13.16;84.76;101354.25;5048678;28;20025;-81
2022/06/22 00:18:03;;;;;;;19.73;10.27;;;;;;;13.13;84.68;101353.47;5048732;28;20031;-82
2022/06/22 00:20:32;;;;;;;18.58;11.05;;;;;;;13.11;84.86;101353.47;5048670;28;20029;-82
2022/06/22 00:23:25;;;;;;;20.40;10.43;;;;;;;13.14;84.51;101347.38;5048631;28;20020;-81
2022/06/22 00:25:51;;;;;;;21.35;10.90;;;;;;;13.09;85.12;101339.66;5055387;28;20024;-81
2022/06/22 00:28:33;;;;;;;17.30;10.68;;;;;;;13.08;85.04;101337.94;5068500;28;20028;-81
2022/06/22 00:31:21;;;;;;;21.77;11.38;;;;;;;13.10;85.16;101330.09;5068535;28;20032;-81
2022/06/22 00:34:14;;;;;;;16.92;10.65;;;;;;;13.07;84.95;101331.03;5068524;28;20096;-82
2022/06/22 00:36:54;;;;;;;22.75;11.77;;;;;;;13.14;86.36;101332.59;5068602;28;20420;-81
2022/06/22 00:39:29;;;;;;;22.40;11.35;;;;;;;13.17;86.52;101329.91;5068517;28;20505;-81
2022/06/22 00:42:15;;;;;;;21.45;11.57;;;;;;;13.19;85.80;101329.88;5068352;28;20421;-82
2022/06/22 00:45:08;;;;;;;21.75;11.75;;;;;;;13.20;86.08;101329.84;5066893;28;20021;-81
2022/06/22 00:47:42;;;;;;;21.45;11.60;;;;;;;13.20;86.93;101331.59;5072103;28;20231;-82
2022/06/22 00:50:18;;;;;;;;;;;;;;;13.24;83.91;101333.19;5072464;28;20017;-82
2022/06/22 00:52:59;;;;;;;21.05;11.07;;;;;;;13.23;86.87;101331.53;5072355;28;19908;-81
2022/06/22 00:55:35;;;;;;;21.70;11.82;;;;;;;13.19;87.01;101330.72;5071824;28;20035;-81
2022/06/22 00:58:38;;;;;;;22.77;11.25;;;;;;;13.19;85.58;101335.94;5059601;28;20025;-81
2022/06/22 01:01:26;;;;;;;23.08;11.68;;;;;;;13.16;85.66;101338.63;5051759;28;20049;-81
2022/06/22 01:04:08;;;;;;;23.35;11.60;;;;;;;13.14;86.50;101337.81;5059160;28;20185;-81
2022/06/22 01:07:15;;;;;;;21.83;11.50;;;;;;;13.10;86.12;101324.91;5055891;28;20085;-82
2022/06/22 01:09:51;;;;;;;22.30;11.35;;;;;;;13.05;86.65;101327.59;5038668;28;20082;-82
2022/06/22 01:12:36;;;;;;;22.67;11.95;;;;;;;13.04;87.24;101336.28;5071623;28;20036;-81
2022/06/22 01:15:07;;;;;;;;;;;;;;;13.05;84.20;101328.47;5072062;28;20099;-81
2022/06/22 01:17:40;;;;;;;22.85;11.18;;;;;;;13.01;87.90;101334.66;5071762;28;20227;-81
2022/06/22 01:20:25;;;;;;;20.77;11.82;;;;;;;12.99;87.45;101333.81;5071943;28;20028;-81
2022/06/22 01:23:13;;;;;;;22.65;11.93;;;;;;;12.96;87.40;101330.47;5071819;28;20028;-82
2022/06/22 01:25:51;;;;;;;23.20;11.93;;;;;;;12.95;88.30;101328.75;5060496;28;20197;-82
2022/06/22 01:28:18;;;;;;;24.23;12.52;;;;;;;12.94;88.96;101333.09;5070517;28;20040;-83
2022/06/22 01:30:52;;;;;;;21.27;12.02;;;;;;;12.92;89.00;101345.28;5069349;28;20036;-83
2022/06/22 01:33:34;;;;;;;24.25;12.07;;;;;;;12.89;87.28;101347.13;5064452;28;20037;-82
2022/06/22 01:36:10;;;;;;;20.15;12.00;;;;;;;12.89;88.54;101347.13;5065634;28;20017;-82
2022/06/22 01:38:38;;;;;;;23.23;12.55;;;;;;;12.87;88.58;101343.69;5058135;28;20036;-82
2022/06/22 01:41:39;;;;;;;23.85;12.38;;;;;;;12.86;88.18;101341.97;5062401;28;20040;-82
2022/06/22 01:44:30;;;;;;;25.48;12.15;;;;;;;12.83;87.80;101334.28;5050905;28;20076;-82
2022/06/22 01:47:19;;;;;;;23.85;12.73;;;;;;;12.82;88.70;101328.22;5059505;28;20021;-82
2022/06/22 01:50:06;;;;;;;23.65;12.73;;;;;;;12.82;90.00;101322.16;5069010;28;20020;-73
2022/06/22 01:52:45;;;;;;;29.00;13.35;;;;;;;12.79;89.68;101302.25;5070565;28;20413;-73
2022/06/22 01:55:25;;;;;;;23.85;12.48;;;;;;;12.80;89.77;101297.91;5070810;28;20372;-73
2022/06/22 01:58:14;;;;;;;25.00;13.23;;;;;;;12.77;89.80;101296.22;5069718;28;20044;-73
2022/06/22 02:00:42;;;;;;;23.77;12.73;;;;;;;12.78;90.36;101297.94;5056482;28;20024;-73
2022/06/22 02:03:22;;;;;;;25.48;13.50;;;;;;;12.81;90.51;101297.03;5050558;28;20055;-74
2022/06/22 02:05:57;;;;;;;27.42;14.00;;;;;;;12.81;91.31;101299.63;5064957;28;20038;-73
2022/06/22 02:08:36;;;;;;;23.60;13.52;;;;;;;12.82;90.51;101306.53;5070501;28;20087;-73
2022/06/22 02:11:11;;;;;;;28.80;14.35;;;;;;;12.84;91.67;101308.19;5070549;28;20029;-73
2022/06/22 02:13:39;;;;;;;27.38;14.23;;;;;;;12.80;91.14;101301.38;5070846;28;20051;-73
2022/06/22 02:16:25;;;;;;;25.77;13.10;;;;;;;12.78;89.60;101299.69;5070487;28;20503;-73
2022/06/22 02:19:08;;;;;;;23.80;12.82;;;;;;;12.78;90.81;101307.50;5070630;28;20025;-82
2022/06/22 02:21:55;;;;;;;30.92;14.32;;;;;;;12.78;91.10;101312.69;5061145;28;20082;-82
2022/06/22 02:24:41;;;;;;;28.48;13.27;;;;;;;12.76;90.77;101309.31;5049145;28;20032;-82
2022/06/22 02:27:10;;;;;;;22.63;13.40;;;;;;;12.73;91.08;101298.97;5050312;28;20025;-82
2022/06/22 02:29:51;;;;;;;27.55;13.68;;;;;;;12.68;90.97;101300.81;5050692;28;20032;-82
2022/06/22 02:32:21;;;;;;;27.98;13.18;;;;;;;12.65;91.20;101300.00;5049922;28;20037;-82
2022/06/22 02:34:49;;;;;;;25.92;13.10;;;;;;;12.62;90.95;101292.25;5050445;28;20082;-82
2022/06/22 02:37:17;;;;;;;27.27;13.45;;;;;;;12.58;90.94;101287.19;5064622;28;20177;-82
2022/06/22 02:39:46;;;;;;;25.05;13.63;;;;;;;12.57;91.09;101273.31;5070294;28;20080;-82
2022/06/22 02:44:58;;;;;;;25.10;13.68;;;;;;;12.50;91.27;101258.75;5050088;28;20035;-82
2022/06/22 02:47:31;;;;;;;25.63;13.50;;;;;;;12.48;91.32;101257.13;5049918;28;20036;-82
2022/06/22 02:50:12;;;;;;;29.83;14.30;;;;;;;12.48;91.56;101262.31;5050251;28;20021;-82
2022/06/22 02:52:46;;;;;;;24.40;13.75;;;;;;;12.45;91.37;101271.03;5049992;28;20105;-82
2022/06/22 02:55:13;;;;;;;;;;;;;;;12.47;88.52;101284.00;5050413;28;20391;-82
2022/06/22 02:57:45;;;;;;;27.60;13.27;;;;;;;12.41;91.21;101286.75;5049830;28;19921;-82
2022/06/22 03:00:12;;;;;;;27.98;13.80;;;;;;;12.37;91.37;101282.50;5049931;28;20113;-82
2022/06/22 03:02:38;;;;;;;27.67;14.02;;;;;;;12.38;91.31;101285.06;5049510;28;20056;-82
2022/06/22 03:05:05;;;;;;;27.40;13.68;;;;;;;12.33;91.00;101280.88;5061891;28;20036;-82
2022/06/22 03:07:33;;;;;;;28.50;14.77;;;;;;;12.30;91.61;101278.34;5069516;28;20103;-82
2022/06/22 03:10:02;;;;;;;26.52;13.82;;;;;;;12.26;91.46;101286.22;5063514;28;20461;-82
2022/06/22 03:12:28;;;;;;;28.05;14.07;;;;;;;12.24;91.74;101298.41;5049174;28;20028;-82
2022/06/22 03:14:56;;;;;;;27.50;14.40;;;;;;;12.20;91.64;101301.97;5049626;28;20028;-82
2022/06/22 03:17:28;;;;;;;27.63;14.05;;;;;;;12.19;91.23;101296.81;5047804;28;20437;-82
2022/06/22 03:20:08;;;;;;;26.98;14.23;;;;;;;12.17;91.58;101293.38;5049575;28;20454;-82
2022/06/22 03:22:37;;;;;;;26.30;13.65;;;;;;;12.15;91.56;101300.34;5054811;28;20537;-82
2022/06/22 03:25:16;;;;;;;24.75;13.20;;;;;;;12.09;91.14;101306.53;5069160;28;20054;-82
2022/06/22 03:27:47;;;;;;;28.10;14.40;;;;;;;12.07;91.67;101302.28;5069046;28;20035;-82
2022/06/22 03:30:41;;;;;;;28.42;15.23;;;;;;;12.08;91.82;101289.22;5069586;28;20163;-82
2022/06/22 03:33:11;;;;;;;30.30;13.88;;;;;;;12.06;91.83;101282.38;5068941;28;20024;-82
2022/06/22 03:35:39;;;;;;;32.10;14.48;;;;;;;12.05;92.24;101280.66;5063444;28;20103;-82
2022/06/22 03:38:10;;;;;;;34.78;14.43;;;;;;;12.06;92.80;101283.25;5048909;28;20216;-82
2022/06/22 03:40:42;;;;;;;28.15;14.25;;;;;;;12.06;92.82;101287.56;5047836;28;20463;-82
2022/06/22 03:43:13;;;;;;;28.02;14.40;;;;;;;12.07;93.01;101284.09;5047746;28;20064;-82
2022/06/22 03:45:49;;;;;;;32.00;14.85;;;;;;;12.05;93.12;101273.72;5047619;28;20044;-82
2022/06/22 03:48:24;;;;;;;30.23;14.95;;;;;;;12.06;92.15;101266.78;5049265;28;20082;-73
2022/06/22 03:50:55;;;;;;;30.83;15.35;;;;;;;12.09;93.22;101277.09;5048987;28;20025;-73
2022/06/22 03:53:35;;;;;;;31.58;15.40;;;;;;;12.12;93.40;101269.25;5048701;28;20566;-73
2022/06/22 03:56:07;;;;;;;34.03;15.57;;;;;;;12.12;92.90;101269.25;5048944;28;20024;-73
2022/06/22 03:58:32;;;;;;;28.80;15.13;;;;;;;12.14;93.14;101270.94;5049132;28;20090;-73
2022/06/22 04:00:59;;;;;;;33.10;15.40;;;;;;;12.17;93.40;101264.78;5048548;28;20399;-73
2022/06/22 04:03:24;;;;;;;30.33;15.18;;;;;;;12.17;93.33;101268.25;5051535;28;20024;-73
2022/06/22 04:05:55;;;;;;;32.80;15.75;;;;;;;12.19;93.53;101270.81;5069066;28;20024;-73
2022/06/22 04:08:29;;;;;;;35.15;16.90;;;;;;;12.18;94.12;101263.91;5068575;28;20029;-73
2022/06/22 04:11:01;;;;;;;;;;;;;;;12.22;90.91;101257.72;5069361;28;20031;-73
2022/06/22 04:13:41;;;;;;;31.25;14.93;;;;;;;12.21;93.42;101251.66;5068531;28;20318;-73
2022/06/22 04:16:17;;;;;;;32.63;16.38;;;;;;;12.22;93.94;101260.31;5068549;28;20021;-74
2022/06/22 04:18:49;;;;;;;37.83;17.35;;;;;;;12.24;94.57;101263.75;5068938;28;20024;-82
2022/06/22 04:21:26;;;;;;;33.38;16.30;;;;;;;12.28;94.47;101271.44;5070701;28;20142;-82
2022/06/22 04:23:58;;;;;;;33.95;16.05;;;;;;;12.32;94.74;101267.03;5072529;28;20103;-82
2022/06/22 04:26:36;;;;;;;36.78;17.85;;;;;;;12.39;94.68;101271.19;5072493;28;20035;-82
2022/06/22 04:29:10;;;;;;;35.55;17.73;;;;;;;12.43;95.07;101278.00;5072893;28;20025;-82
2022/06/22 04:31:43;;;;;;;37.35;17.83;;;;;;;12.49;94.98;101284.81;5072817;28;20441;-83
2022/06/22 04:34:16;;;;;;;36.38;16.90;;;;;;;12.53;94.75;101276.91;5072566;28;20394;-83
2022/06/22 04:36:51;;;;;;;35.80;16.80;;;;;;;12.56;94.58;101276.81;5053754;28;20060;-82
2022/06/22 04:39:45;;;;;;;41.55;18.70;;;;;;;12.57;94.87;101269.88;5052430;28;20107;-83
2022/06/22 04:42:10;;;;;;;38.08;17.08;;;;;;;12.63;94.88;101282.72;5061319;28;20461;-83
2022/06/22 04:44:57;;;;;;;37.53;17.90;;;;;;;12.70;95.26;101288.63;5072099;28;20567;-82
2022/06/22 04:47:31;;;;;;;38.63;17.63;;;;;;;12.70;95.21;101289.47;5071927;28;20471;-82
2022/06/22 04:50:13;;;;;;;39.28;17.80;;;;;;;12.76;95.18;101293.69;5054365;28;20029;-82
2022/06/22 04:52:47;;;;;;;34.45;17.35;;;;;;;12.82;95.45;101298.72;5052111;28;20029;-82
2022/06/22 04:55:16;;;;;;;37.30;17.70;;;;;;;12.85;95.07;101290.84;5052129;28;20017;-82
2022/06/22 04:57:44;;;;;;;38.83;18.77;;;;;;;12.89;95.21;101289.88;5051763;28;20028;-82
2022/06/22 05:00:22;;;;;;;41.22;17.73;;;;;;;12.94;95.13;101288.84;5052311;28;20017;-83
2022/06/22 05:02:54;;;;;;;34.42;17.35;;;;;;;12.98;95.27;101287.88;5053875;28;20053;-83
2022/06/22 05:05:23;;;;;;;41.40;18.70;;;;;;;13.04;95.04;101300.72;5072343;28;20470;-83
2022/06/22 05:07:48;;;;;;;41.70;18.83;;;;;;;13.10;95.82;101304.91;5071765;28;20031;-83
2022/06/22 05:10:41;;;;;;;40.27;17.80;;;;;;;13.17;95.49;101306.47;5072381;28;20028;-83
2022/06/22 05:13:23;;;;;;;40.50;19.13;;;;;;;13.23;94.81;101310.69;5071757;28;20044;-83
2022/06/22 05:15:53;;;;;;;43.42;18.92;;;;;;;13.29;95.28;101311.38;5071831;28;20033;-83
2022/06/22 05:18:29;;;;;;;39.05;19.20;;;;;;;13.35;95.56;101319.00;5071612;28;20468;-83
2022/06/22 05:21:30;;;;;;;39.28;19.80;;;;;;;13.40;95.22;101318.88;5071637;28;20029;-82
2022/06/22 05:23:59;;;;;;;41.33;19.65;;;;;;;13.51;96.04;101331.63;5071879;28;20423;-83
2022/06/22 05:26:28;;;;;;;47.65;19.60;;;;;;;13.57;95.14;101327.09;5071272;28;20027;-83
2022/06/22 05:29:14;;;;;;;41.78;20.38;;;;;;;13.63;95.15;101323.44;5071827;28;20025;-82
2022/06/22 05:31:46;;;;;;;43.95;19.75;;;;;;;13.72;94.64;101334.44;5071295;28;20024;-83
2022/06/22 05:34:22;;;;;;;45.05;20.02;;;;;;;13.80;94.66;101322.06;5071432;28;20051;-83
2022/06/22 05:36:52;;;;;;;37.78;19.00;;;;;;;13.90;94.35;101329.63;5071062;28;20020;-82
2022/06/22 05:39:17;;;;;;;45.25;20.58;;;;;;;13.99;95.58;101326.75;5052418;28;20052;-83
2022/06/22 05:41:46;;;;;;;42.40;20.67;;;;;;;14.08;94.72;101329.91;5051611;28;20013;-83
2022/06/22 05:44:16;;;;;;;45.65;20.45;;;;;;;14.15;94.93;101318.38;5050976;28;20446;-83
2022/06/22 05:46:53;;;;;;;43.53;20.40;;;;;;;14.26;95.25;101327.66;5051082;28;20025;-83
2022/06/22 05:49:22;;;;;;;42.85;19.90;;;;;;;14.30;93.47;101324.88;5050963;28;20039;-83
2022/06/22 05:51:57;;;;;;;42.42;20.13;;;;;;;14.38;93.13;101317.72;5050944;28;20036;-83
2022/06/22 05:54:51;;;;;;;40.72;19.52;;;;;;;14.44;92.14;101316.66;5051050;28;20040;-83
2022/06/22 05:57:35;;;;;;;39.03;19.92;;;;;;;14.54;92.78;101326.75;5049377;28;20163;-83
2022/06/22 06:00:10;;;;;;;41.47;19.85;;;;;;;14.62;91.72;101329.09;5051046;28;20064;-83
2022/06/22 06:02:43;;;;;;;;;;;;;;;14.71;90.90;101334.03;5050814;28;20482;-83
2022/06/22 06:05:44;;;;;;;43.72;19.48;;;;;;;14.80;91.83;101335.50;5050585;28;19970;-83
2022/06/22 06:08:26;;;;;;;38.75;18.73;;;;;;;14.90;90.01;101337.72;5060201;28;20044;-83
2022/06/22 06:10:53;;;;;;;36.08;18.52;;;;;;;15.00;90.02;101343.50;5070664;28;20029;-83
2022/06/22 06:13:38;;;;;;;38.63;18.63;;;;;;;15.09;91.54;101343.16;5070364;28;20029;-83
2022/06/22 06:16:09;;;;;;;37.42;18.90;;;;;;;15.17;88.37;101345.53;5069067;28;20167;-83
2022/06/22 06:18:40;;;;;;;35.55;18.30;;;;;;;15.26;89.18;101345.22;5070237;28;20252;-83
2022/06/22 06:21:16;;;;;;;35.80;18.05;;;;;;;15.34;89.00;101348.41;5070348;28;20028;-83
2022/06/22 06:23:45;;;;;;;37.17;18.70;;;;;;;15.42;89.82;101347.22;5070339;28;20021;-83
2022/06/22 06:29:14;;;;;;;37.15;18.40;;;;;;;15.61;86.65;101350.06;5050126;28;20036;-74
2022/06/22 06:31:53;;;;;;;34.42;18.00;;;;;;;15.69;87.29;101355.03;5048481;28;20587;-74
2022/06/22 06:34:26;;;;;;;40.63;18.65;;;;;;;15.77;86.81;101348.59;5050246;28;20444;-74
2022/06/22 06:37:18;;;;;;;33.25;18.27;;;;;;;15.86;86.61;101338.69;5049924;28;20115;-74
2022/06/22 06:39:47;;;;;;;36.70;17.25;;;;;;;15.92;86.95;101354.16;5048751;28;20099;-74
2022/06/22 06:42:15;;;;;;;34.33;17.98;;;;;;;15.99;86.49;101343.41;5049735;28;20491;-74
2022/06/22 06:44:43;;;;;;;31.95;17.20;;;;;;;16.09;85.40;101351.78;5049516;28;20091;-74
2022/06/22 06:47:21;;;;;;;33.40;18.17;;;;;;;16.22;84.59;101349.53;5049845;28;20132;-74
2022/06/22 06:49:53;;;;;;;35.45;17.90;;;;;;;16.36;83.96;101342.84;5049822;28;20036;-75
2022/06/22 06:52:41;;;;;;;33.45;17.38;;;;;;;16.50;83.27;101348.38;5049464;28;20020;-75
2022/06/22 06:55:13;;;;;;;35.45;17.45;;;;;;;16.65;82.70;101338.25;5049971;28;20158;-75
2022/06/22 06:58:01;;;;;;;32.72;16.75;;;;;;;16.81;82.91;101339.28;5048404;28;20111;-75
2022/06/22 07:00:29;;;;;;;29.55;15.10;;;;;;;16.98;81.79;101331.59;5049607;28;20040;-84
2022/06/22 07:02:55;;;;;;;28.58;15.63;;;;;;;17.13;78.61;101319.59;5049497;28;20523;-83
2022/06/22 07:05:23;;;;;;;29.67;15.32;;;;;;;17.27;80.98;101322.47;5049513;28;20096;-84
2022/06/22 07:08:10;;;;;;;25.15;14.93;;;;;;;17.46;82.05;101328.63;5049467;28;20033;-83
2022/06/22 07:10:41;;;;;;;28.15;14.80;;;;;;;17.62;78.00;101321.78;5049679;28;20029;-84
2022/06/22 07:13:17;;;;;;;26.52;13.18;;;;;;;17.72;73.27;101323.09;5049149;28;20395;-83
2022/06/22 07:15:46;;;;;;;29.38;14.38;;;;;;;17.90;74.98;101318.75;5049653;28;20044;-84
2022/06/22 07:18:36;;;;;;;31.52;13.48;;;;;;;18.10;73.98;101315.19;5049005;28;20036;-84
2022/06/22 07:21:25;;;;;;;23.02;12.63;;;;;;;18.24;74.33;101312.75;5052985;28;20067;-84
2022/06/22 07:23:58;;;;;;;24.58;12.77;;;;;;;18.37;70.68;101311.25;5057156;28;20020;-84
2022/06/22 07:26:35;;;;;;;20.63;12.38;;;;;;;18.54;71.99;101305.19;5069172;28;20031;-84
2022/06/22 07:29:22;;;;;;;21.65;12.25;;;;;;;18.67;72.07;101301.06;5069446;28;20105;-84
2022/06/22 07:31:54;;;;;;;24.90;12.75;;;;;;;18.81;70.47;101301.22;5069016;28;20029;-84
2022/06/22 07:34:30;;;;;;;22.10;13.05;;;;;;;18.92;69.48;101305.91;5061035;28;20028;-84
2022/06/22 07:37:11;;;;;;;20.00;12.10;;;;;;;19.06;67.46;101305.22;5049039;28;20021;-83
2022/06/22 07:39:53;;;;;;;25.65;12.48;;;;;;;19.19;69.12;101293.97;5049178;28;20039;-84
2022/06/22 07:42:19;;;;;;;20.17;12.02;;;;;;;19.25;65.18;101290.19;5049056;28;20498;-85
2022/06/22 07:44:46;;;;;;;22.77;11.90;;;;;;;19.41;67.29;101283.19;5049160;28;20033;-84
2022/06/22 07:47:25;;;;;;;16.80;10.57;;;;;;;19.72;63.71;101282.41;5047721;28;20093;-84
2022/06/22 07:49:59;;;;;;;18.20;10.75;;;;;;;20.01;64.32;101278.16;5049513;28;20025;-83
2022/06/22 07:52:33;;;;;;;18.55;11.00;;;;;;;20.17;60.94;101289.53;5048810;28;20043;-83
2022/06/22 07:55:16;;;;;;;22.80;10.53;;;;;;;20.34;62.27;101297.34;5049276;28;20036;-84
2022/06/22 07:57:51;;;;;;;18.02;10.75;;;;;;;20.38;63.16;101293.63;5053140;28;20456;-85
2022/06/22 08:00:21;;;;;;;23.20;11.10;;;;;;;20.40;61.49;101297.00;5053259;28;20021;-83
2022/06/22 08:02:55;;;;;;;16.33;9.68;;;;;;;20.50;63.66;101306.09;5052710;28;20049;-84
2022/06/22 08:05:29;;;;;;;15.88;9.30;;;;;;;20.53;62.32;101299.81;5052889;28;20225;-85
2022/06/22 08:08:03;;;;;;;;;;;;;;;20.71;64.61;101305.78;5053190;28;20406;-84
2022/06/22 08:10:38;;;;;;;16.80;8.73;;;;;;;20.66;57.72;101300.78;5051588;28;19947;-84
2022/06/22 08:13:17;;;;;;;14.90;8.30;;;;;;;20.73;60.29;101302.13;5051187;28;20108;-84
2022/06/22 08:15:52;;;;;;;15.50;8.57;;;;;;;20.79;60.05;101307.03;5053176;28;20581;-84
2022/06/22 08:18:19;;;;;;;15.43;8.38;;;;;;;20.82;60.80;101304.19;5059348;28;20052;-85
2022/06/22 08:20:48;;;;;;;14.93;8.30;;;;;;;20.96;56.77;101308.66;5072896;28;20016;-84
2022/06/22 08:23:19;;;;;;;15.50;8.65;;;;;;;21.27;59.81;101303.28;5072528;28;20132;-84
2022/06/22 08:25:48;;;;;;;15.73;8.77;;;;;;;21.67;57.94;101306.94;5072514;28;20027;-85
2022/06/22 08:28:16;;;;;;;12.90;8.35;;;;;;;22.00;54.86;101305.78;5072517;28;20074;-85
2022/06/22 08:30:41;;;;;;;14.60;8.93;;;;;;;22.08;53.74;101311.41;5072835;28;20024;-84
2022/06/22 08:33:16;;;;;;;12.75;8.85;;;;;;;22.22;54.05;101318.47;5072028;28;20074;-84
2022/06/22 08:35:51;;;;;;;16.20;8.73;;;;;;;22.41;58.00;101319.78;5052792;28;20378;-85
2022/06/22 08:38:21;;;;;;;16.27;9.55;;;;;;;22.60;52.52;101324.72;5051988;28;20025;-84
2022/06/22 08:41:15;;;;;;;13.25;8.13;;;;;;;22.79;56.14;101319.09;5052348;28;20470;-85
2022/06/22 08:43:51;;;;;;;13.73;8.68;;;;;;;23.10;54.60;101317.84;5052399;28;20480;-85
2022/06/22 08:46:45;;;;;;;13.02;8.02;;;;;;;23.38;56.91;101315.00;5052170;28;20029;-86
2022/06/22 08:49:34;;;;;;;15.45;8.88;;;;;;;23.50;50.88;101318.63;5047092;28;20343;-84
2022/06/22 08:52:27;;;;;;;15.15;8.68;;;;;;;23.56;53.39;101313.75;5052375;28;20028;-85
2022/06/22 08:55:04;;;;;;;17.25;8.00;;;;;;;23.62;53.05;101320.41;5059960;28;20094;-85
2022/06/22 08:57:55;;;;;;;13.00;7.72;;;;;;;23.82;53.46;101321.63;5072191;28;20120;-83
2022/06/22 09:00:41;;;;;;;13.65;7.68;;;;;;;23.80;50.44;101318.25;5072001;28;20020;-85
2022/06/22 09:03:09;;;;;;;12.77;7.20;;;;;;;23.69;51.67;101304.91;5062506;28;20090;-85
2022/06/22 09:06:12;;;;;;;13.68;7.93;;;;;;;23.88;52.28;101298.19;5051770;28;20025;-85
2022/06/22 09:08:58;;;;;;;12.18;6.97;;;;;;;24.31;52.58;101305.69;5052075;28;20115;-85
2022/06/22 09:11:44;;;;;;;14.73;6.82;;;;;;;24.59;50.35;101309.81;5051844;28;20302;-85
2022/06/22 09:14:35;;;;;;;10.35;6.38;;;;;;;24.76;47.57;101314.69;5051617;28;20017;-84
2022/06/22 09:17:14;;;;;;;9.95;5.80;;;;;;;24.86;46.84;101307.72;5042350;28;20033;-84
2022/06/22 09:19:56;;;;;;;10.90;5.60;;;;;;;24.92;43.55;101311.75;5051794;28;20025;-84
2022/06/22 09:22:42;;;;;;;11.95;5.35;;;;;;;24.90;40.93;101317.19;5051500;28;20023;-85
2022/06/22 09:25:36;;;;;;;10.02;5.78;;;;;;;24.73;44.59;101312.25;5051454;28;20055;-85
2022/06/22 09:28:11;;;;;;;10.15;5.90;;;;;;;24.89;44.91;101312.81;5051345;28;20440;-85
2022/06/22 09:31:04;;;;;;;10.35;6.00;;;;;;;24.89;42.95;101317.25;5051583;28;20029;-85
2022/06/22 09:33:59;;;;;;;13.07;5.30;;;;;;;25.03;44.77;101317.09;5052764;28;20400;-85
2022/06/22 09:36:28;;;;;;;9.20;5.28;;;;;;;24.93;42.15;101321.41;5070010;28;20036;-85
2022/06/22 09:39:24;;;;;;;13.65;6.13;;;;;;;24.98;44.28;101322.72;5071682;28;20028;-76
2022/06/22 09:42:22;;;;;;;9.27;5.88;;;;;;;25.15;41.82;101321.44;5071071;28;20030;-76
2022/06/22 09:45:27;;;;;;;12.77;4.90;;;;;;;25.44;45.77;101327.16;5071094;28;20405;-76
2022/06/22 09:48:02;;;;;;;9.95;5.43;;;;;;;25.50;42.86;101327.53;5071038;28;20376;-76
2022/06/22 09:50:37;;;;;;;9.05;4.93;;;;;;;25.55;43.51;101327.16;5071242;28;20079;-76
2022/06/22 09:53:25;;;;;;;11.68;5.57;;;;;;;25.63;43.87;101322.13;5069687;28;20036;-76
2022/06/22 09:56:24;;;;;;;9.82;5.65;;;;;;;25.68;41.90;101327.91;5071294;28;20020;-76
2022/06/22 09:59:10;;;;;;;9.52;5.45;;;;;;;25.71;40.61;101325.00;5071133;28;20478;-76
2022/06/22 10:02:00;;;;;;;12.75;6.05;;;;;;;25.60;41.09;101329.47;5069551;28;20052;-76
2022/06/22 10:04:50;;;;;;;8.60;5.97;;;;;;;25.65;43.99;101322.00;5059904;28;20033;-76
2022/06/22 10:07:37;;;;;;;15.93;6.38;;;;;;;25.71;43.60;101321.50;5050774;28;20029;-76
2022/06/22 10:10:28;;;;;;;10.40;5.60;;;;;;;25.73;42.83;101307.13;5049666;28;20070;-85
2022/06/22 10:13:09;;;;;;;11.13;6.40;;;;;;;25.55;40.85;101316.53;5050928;28;20024;-85
2022/06/22 10:15:40;;;;;;;13.02;5.70;;;;;;;25.48;41.78;101312.66;5058864;28;20074;-85
2022/06/22 10:18:27;;;;;;;11.20;6.00;;;;;;;25.46;41.52;101317.25;5068155;28;20024;-85
2022/06/22 10:21:35;;;;;;;12.20;6.30;;;;;;;25.51;40.76;101313.28;5070969;28;20028;-85
2022/06/22 10:24:39;;;;;;;10.85;6.28;;;;;;;25.45;42.03;101310.25;5060215;28;20441;-85
2022/06/22 10:27:24;;;;;;;9.30;5.90;;;;;;;25.49;41.60;101315.19;5070733;28;20029;-85
2022/06/22 10:30:17;;;;;;;9.38;5.40;;;;;;;25.35;41.22;101307.47;5070619;28;20056;-85
2022/06/22 10:32:54;;;;;;;10.70;5.15;;;;;;;25.44;44.82;101290.00;5070573;28;20028;-86
2022/06/22 10:35:22;;;;;;;9.30;5.50;;;;;;;25.46;42.11;101285.38;5070505;28;20474;-85
2022/06/22 10:38:04;;;;;;;11.80;6.18;;;;;;;25.31;40.71;101292.75;5057188;28;20502;-85
2022/06/22 10:47:52;;;;;;;8.63;4.75;;;;;;;24.97;40.84;101277.78;5061694;28;20071;-86
2022/06/22 10:50:27;;;;;;;8.13;4.65;;;;;;;25.10;40.75;101289.13;5070130;28;20029;-85
2022/06/22 10:53:31;;;;;;;8.82;5.80;;;;;;;25.22;41.86;101287.31;5068613;28;20044;-86
2022/06/22 10:56:17;;;;;;;9.85;5.70;;;;;;;25.09;40.76;101276.81;5069949;28;20055;-85
2022/06/22 10:58:48;;;;;;;10.65;6.13;;;;;;;24.83;41.60;101289.41;5069955;28;20062;-85
2022/06/22 11:01:13;;;;;;;12.43;5.60;;;;;;;24.75;39.34;101275.88;5069378;28;20052;-85
2022/06/22 11:04:14;;;;;;;10.00;5.60;;;;;;;24.82;41.24;101274.44;5059700;28;20028;-85
2022/06/22 11:07:05;;;;;;;10.45;5.72;;;;;;;24.79;41.55;101277.31;5049660;28;20376;-85
2022/06/22 11:09:48;;;;;;;7.75;5.60;;;;;;;24.78;40.59;101276.47;5049892;28;20347;-85
2022/06/22 11:12:35;;;;;;;8.43;5.47;;;;;;;24.88;42.66;101283.75;5049616;28;20033;-85
2022/06/22 11:15:32;;;;;;;9.82;5.95;;;;;;;24.86;41.01;101275.91;5058622;28;20070;-86
2022/06/22 11:18:01;;;;;;;9.75;5.40;;;;;;;24.94;40.35;101278.84;5069624;28;20034;-86
2022/06/22 11:20:53;;;;;;;11.55;5.90;;;;;;;24.86;40.93;101281.19;5069705;28;20028;-85
2022/06/22 11:23:39;;;;;;;8.10;4.78;;;;;;;24.82;39.89;101279.75;5069284;28;20097;-85
2022/06/22 11:32:45;;;;;;;10.02;4.78;;;;;;;24.68;38.24;101274.66;5069807;28;20559;-85
2022/06/22 11:35:33;;;;;;;12.13;5.05;;;;;;;24.62;39.17;101281.28;5049394;28;20085;-85
2022/06/22 11:38:23;;;;;;;9.77;4.55;;;;;;;24.75;40.55;101266.13;5049102;28;20048;-85
2022/06/22 11:41:00;;;;;;;9.27;4.68;;;;;;;24.74;40.94;101275.03;5049247;28;20479;-85
2022/06/22 11:43:56;;;;;;;9.48;4.55;;;;;;;24.84;41.23;101280.47;5049116;28;20044;-85
2022/06/22 11:46:36;;;;;;;11.43;4.32;;;;;;;24.86;40.21;101285.66;5057594;28;20056;-85
2022/06/22 11:49:28;;;;;;;10.60;4.65;;;;;;;24.82;37.46;101290.38;5069223;28;20021;-85
2022/06/22 11:52:30;;;;;;;11.55;4.50;;;;;;;24.74;39.75;101280.34;5065910;28;20044;-85
2022/06/22 11:55:10;;;;;;;7.07;4.57;;;;;;;24.81;41.21;101280.72;5069064;28;20115;-85
2022/06/22 11:58:00;;;;;;;9.40;4.55;;;;;;;24.82;38.90;101281.56;5068832;28;20031;-85
2022/06/22 12:00:37;;;;;;;7.95;4.25;;;;;;;24.70;38.72;101272.75;5069421;28;20044;-85
2022/06/22 12:03:37;;;;;;;6.28;3.88;;;;;;;24.65;39.42;101274.88;5067651;28;20437;-85
2022/06/22 12:06:15;;;;;;;9.73;4.03;;;;;;;24.70;38.88;101278.84;5049072;28;20087;-85
2022/06/22 12:08:51;;;;;;;8.27;3.80;;;;;;;24.68;36.47;101272.00;5049105;28;20127;-85
2022/06/22 12:11:22;;;;;;;16.05;4.22;;;;;;;24.88;36.99;101268.69;5048903;28;20025;-85
2022/06/22 12:17:06;;;;;;;10.02;4.13;;;;;;;24.92;37.84;101272.78;5049182;28;20039;-85
2022/06/22 12:19:38;;;;;;;5.82;3.78;;;;;;;24.92;40.58;101264.84;5049141;28;20056;-85
2022/06/22 12:22:07;;;;;;;9.52;4.88;;;;;;;24.92;38.92;101264.00;5048781;28;21395;-86
2022/06/22 12:24:59;;;;;;;7.18;3.88;;;;;;;24.91;37.95;101263.16;5046176;28;20045;-85
2022/06/22 12:27:41;;;;;;;10.13;3.60;;;;;;;24.89;37.28;101250.97;5048619;28;20116;-86